METAR Data
IDs: Format: Raw Decoded Include TAF

Data at: 2207 UTC 24 Mar 2019

KAXH 242155Z AUTO 16007KT 10SM SCT024 BKN036 OVC055 24/19 A3006 RMK AO2 T02370193
KAXH 242135Z AUTO 17005KT 10SM BKN024 OVC033 24/19 A3006 RMK AO2 T02400194
KAXH 242115Z AUTO 18004KT 10SM BKN024 BKN032 OVC039 24/19 A3006 RMK AO2 T02400192
KAXH 242055Z AUTO 16008KT 10SM BKN026 BKN031 OVC055 24/19 A3006 RMK AO2 T02370192
KAXH 242035Z AUTO 16006KT 10SM SCT024 BKN032 OVC050 24/19 A3007 RMK AO2 T02400193
KAXH 242015Z AUTO 14007KT 10SM SCT024 BKN033 OVC060 24/19 A3007 RMK AO2 T02400192
KAXH 241955Z AUTO 15006KT 10SM SCT026 SCT038 OVC060 25/19 A3008 RMK AO2 T02460189
KAXH 241935Z AUTO 16006KT 10SM SCT026 BKN039 OVC060 24/19 A3008 RMK AO2 T02410191
KAXH 241915Z AUTO 16005KT 10SM OVC060 24/19 A3009 RMK AO2 T02420188
KAXH 241855Z AUTO 18005KT 10SM SCT026 SCT032 OVC050 24/19 A3010 RMK AO2 T02400188
KAXH 241835Z AUTO 16006KT 10SM SCT024 BKN043 OVC050 24/19 A3011 RMK AO2 T02420191
KAXH 241815Z AUTO 16005KT 10SM SCT024 SCT033 OVC049 24/19 A3011 RMK AO2 T02360188
KAXH 241755Z AUTO 16004KT 10SM SCT024 BKN042 OVC049 24/19 A3012 RMK AO2 T02350187 10239 20153
KAXH 241735Z AUTO 15007KT 10SM SCT022 BKN032 OVC049 23/19 A3012 RMK AO2 T02300185
KAXH 241715Z AUTO 16003KT 10SM SCT020 BKN042 OVC048 23/19 A3013 RMK AO2 T02280189
KAXH 241655Z AUTO 17006KT 10SM SCT018 BKN030 OVC042 23/19 A3014 RMK AO2 T02280188
KAXH 241635Z AUTO 17004KT 10SM BKN018 BKN025 OVC032 22/19 A3015 RMK AO2 T02200194
KAXH 241615Z AUTO 17005KT 10SM BKN018 OVC027 22/19 A3015 RMK AO2 T02190187
KAXH 241555Z AUTO 17004KT 10SM OVC018 22/19 A3015 RMK AO2 T02190188
KAXH 241535Z AUTO 17004KT 10SM BKN014 OVC021 22/19 A3014 RMK AO2 T02160188
KAXH 241515Z AUTO 16005KT 10SM OVC012 21/19 A3014 RMK AO2 T02120187
KAXH 241455Z AUTO 16008KT 10SM BKN010 BKN025 22/19 A3014 RMK AO2 T02160189
KAXH 241435Z AUTO 16006KT 10SM SCT010 SCT025 20/19 A3013 RMK AO2 T02040187
KAXH 241415Z AUTO 15004KT 10SM CLR 19/19 A3012 RMK AO2 T01920187
KAXH 241355Z AUTO 14003KT 7SM SCT070 18/18 A3012 RMK AO2 T01790179
KAXH 241335Z AUTO 00000KT 4SM BR SCT024 SCT070 17/17 A3012 RMK AO2 T01690168
KAXH 241315Z AUTO 00000KT 4SM BR BKN024 BKN041 OVC070 16/16 A3012 RMK AO2 T01620162
KAXH 241255Z AUTO 00000KT 5SM BR SCT019 BKN024 OVC070 16/16 A3013 RMK AO2 T01610161
KAXH 241235Z AUTO 00000KT 5SM BR BKN019 OVC070 16/16 A3012 RMK AO2 T01550155
KAXH 241215Z AUTO 00000KT 7SM OVC017 15/15 A3011 RMK AO2 T01540154
KAXH 241155Z AUTO 00000KT 7SM OVC017 15/15 A3011 RMK AO2 T01540154 10155 20132
KAXH 241135Z AUTO 00000KT 7SM OVC019 15/15 A3010 RMK AO2 T01520152
KAXH 241115Z AUTO 00000KT 5SM BR OVC021 15/15 A3011 RMK AO2 T01510151
KAXH 241055Z AUTO 00000KT 4SM BR BKN021 15/15 A3010 RMK AO2 T01500150
KAXH 241035Z AUTO 00000KT 7SM BKN021 15/15 A3010 RMK AO2 T01500150
KAXH 241015Z AUTO 10003KT 5SM BR OVC023 15/15 A3009 RMK AO2 T01500150
KAXH 240955Z AUTO 11003KT 3SM BR OVC021 14/14 A3009 RMK AO2 T01430143
KAXH 240935Z AUTO 00000KT 1/2SM FG BKN019 OVC065 14/14 A3010 RMK AO2 T01390139
KAXH 240915Z AUTO 00000KT 1/2SM FG BKN017 14/14 A3009 RMK AO2 T01360136
KAXH 240855Z AUTO 00000KT 1SM BR BKN015 14/14 A3009 RMK AO2 T01360136
KAXH 240835Z AUTO 00000KT 3SM BR CLR 14/14 A3010 RMK AO2 T01380138
KAXH 240815Z AUTO 00000KT 3SM BR CLR 14/14 A3010 RMK AO2 T01380137
KAXH 240755Z AUTO 00000KT 5SM BR CLR 14/14 A3010 RMK AO2 T01430143
KAXH 240735Z AUTO 00000KT 5SM BR CLR 14/14 A3010 RMK AO2 T01420142
KAXH 240715Z AUTO 00000KT 10SM CLR 15/15 A3010 RMK AO2 T01450145
KAXH 240655Z AUTO 00000KT 10SM CLR 15/15 A3011 RMK AO2 T01470147
KAXH 240635Z AUTO 00000KT 7SM CLR 15/15 A3011 RMK AO2 T01510151
KAXH 240615Z AUTO 12003KT 10SM CLR 15/15 A3011 RMK AO2 T01510151
KAXH 240555Z AUTO 00000KT 7SM CLR 15/15 A3011 RMK AO2 T01490149 10201 20142
KAXH 240535Z AUTO 00000KT 7SM CLR 14/14 A3013 RMK AO2 T01430143
KAXH 240515Z AUTO 00000KT 10SM CLR 14/14 A3013 RMK AO2 T01430143
KAXH 240455Z AUTO 00000KT 10SM CLR 15/15 A3013 RMK AO2 T01500149
KAXH 240435Z AUTO 00000KT 10SM CLR 16/15 A3013 RMK AO2 T01570154
KAXH 240415Z AUTO 00000KT 10SM CLR 16/15 A3012 RMK AO2 T01590154
KAXH 240355Z AUTO 13003KT 10SM CLR 16/15 A3011 RMK AO2 T01600154
KAXH 240335Z AUTO 13003KT 10SM CLR 16/16 A3011 RMK AO2 T01620155
KAXH 240315Z AUTO 14004KT 10SM CLR 17/16 A3012 RMK AO2 T01650155
KAXH 240255Z AUTO 13004KT 10SM CLR 17/16 A3012 RMK AO2 T01660155
KAXH 240235Z AUTO 13004KT 10SM CLR 17/15 A3011 RMK AO2 T01660153
KAXH 240215Z AUTO 13004KT 10SM CLR 17/15 A3011 RMK AO2 T01680152
KAXH 240155Z AUTO 13005KT 10SM CLR 17/15 A3011 RMK AO2 T01690150
KAXH 240135Z AUTO 14005KT 10SM CLR 18/15 A3011 RMK AO2 T01770152
KAXH 240115Z AUTO 14004KT 10SM CLR 18/15 A3011 RMK AO2 T01800151
KAXH 240055Z AUTO 14005KT 10SM SCT030 SCT043 19/15 A3012 RMK AO2 T01850151
KAXH 240035Z AUTO 14006KT 10SM SCT027 SCT033 BKN041 19/15 A3012 RMK AO2 T01910151
KAXH 240015Z AUTO 15006KT 10SM SCT029 BKN038 20/15 A3012 RMK AO2 LTG DSNT N T01950150
KAXH 232355Z AUTO 15006KT 10SM BKN029 OVC038 20/15 A3011 RMK AO2 T02020151 10222 20201
KAXH 232335Z AUTO 15007KT 10SM BKN029 BKN034 OVC041 21/15 A3011 RMK AO2 T02050152
KAXH 232315Z AUTO 14007G16KT 10SM BKN029 BKN038 BKN044 21/15 A3011 RMK AO2 T02070152
KAXH 232255Z AUTO 15009G14KT 10SM BKN029 BKN040 OVC046 21/15 A3011 RMK AO2 T02070151
KAXH 232235Z AUTO 14009G14KT 10SM BKN029 BKN040 BKN100 21/15 A3011 RMK AO2 T02100153
KAXH 232215Z AUTO 14009G16KT 10SM BKN029 OVC040 21/15 A3011 RMK AO2 LTG DSNT N T02100153
KAXH 232155Z AUTO 14011G16KT 10SM BKN029 BKN041 OVC100 21/15 A3011 RMK AO2 T02120152
KAXH 232135Z AUTO 12007G16KT 10SM BKN029 BKN040 22/16 A3010 RMK AO2 T02180155
KAXH 232115Z AUTO 14011G15KT 10SM BKN031 BKN036 BKN043 22/16 A3010 RMK AO2 T02190155
KAXH 232055Z AUTO 12013G19KT 10SM BKN031 OVC040 22/16 A3011 RMK AO2 LTG DSNT N T02180155
KAXH 232035Z AUTO 15012G17KT 10SM SCT029 BKN034 OVC080 22/16 A3012 RMK AO2 LTG DSNT N T02150155
KAXH 232015Z AUTO 14010G16KT 10SM SCT029 SCT036 OVC080 22/16 A3013 RMK AO2 T02180157
KAXH 231955Z AUTO 14009G14KT 10SM SCT029 BKN038 OVC070 22/16 A3013 RMK AO2 T02150156
KAXH 231935Z AUTO 15008KT 10SM BKN029 BKN036 OVC070 21/15 A3014 RMK AO2 T02100153
KAXH 231915Z AUTO 13007KT 10SM OVC027 22/16 A3013 RMK AO2 T02150157
KAXH 231855Z AUTO 13011G16KT 10SM OVC027 22/16 A3014 RMK AO2 T02150157
KAXH 231835Z AUTO 13009G14KT 10SM SCT025 BKN070 OVC080 21/16 A3015 RMK AO2 T02110157
KAXH 231815Z AUTO 14008G16KT 10SM OVC075 21/16 A3016 RMK AO2 T02060155
KAXH 231755Z AUTO 14008G15KT 10SM SCT026 OVC075 20/15 A3017 RMK AO2 T02010153 10210 20130
KAXH 231735Z AUTO 14007KT 10SM SCT028 BKN035 OVC075 20/16 A3017 RMK AO2 T02020155
KAXH 231715Z AUTO 15007KT 10SM SCT030 BKN035 OVC075 21/16 A3018 RMK AO2 T02050156
KAXH 231655Z AUTO 15007KT 10SM BKN031 OVC085 21/16 A3018 RMK AO2 T02060155
KAXH 231635Z AUTO 15004KT 10SM BKN029 OVC085 21/15 A3018 RMK AO2 LTG DSNT N T02070154
KAXH 231615Z AUTO 13008KT 10SM BKN024 OVC085 20/16 A3017 RMK AO2 T02040160
KAXH 231555Z AUTO 15005KT 10SM SCT022 OVC085 20/16 A3017 RMK AO2 LTG DSNT N T02020161
KAXH 231535Z AUTO 13010KT 10SM OVC085 20/17 A3017 RMK AO2 T02040165
KAXH 231515Z AUTO 14004KT 10SM OVC085 19/16 A3017 RMK AO2 T01920164
KAXH 231455Z AUTO 11005KT 10SM OVC085 18/16 A3016 RMK AO2 LTG DSNT N T01800163
KAXH 231435Z AUTO 12005KT 10SM OVC075 17/16 A3016 RMK AO2 T01700158
KAXH 231415Z AUTO 11004KT 7SM OVC075 17/16 A3015 RMK AO2 LTG DSNT N T01650155
KAXH 231355Z AUTO 12003KT 10SM OVC075 16/15 A3014 RMK AO2 T01590151
KAXH 231335Z AUTO 00000KT 7SM BKN075 15/15 A3014 RMK AO2 T01540147
KAXH 231315Z AUTO 00000KT 10SM CLR 15/14 A3013 RMK AO2 T01480143
KAXH 231255Z AUTO 00000KT 10SM CLR 14/14 A3012 RMK AO2 T01360135
KAXH 231235Z AUTO 00000KT 7SM SCT070 13/13 A3011 RMK AO2 T01330133
KAXH 231215Z AUTO 00000KT 10SM SCT070 13/13 A3011 RMK AO2 T01320132
KAXH 231155Z AUTO 00000KT 10SM SCT070 13/13 A3010 RMK AO2 T01320132 10138 20118
KAXH 231135Z AUTO 00000KT 10SM BKN070 14/14 A3009 RMK AO2 T01350135
KAXH 231115Z AUTO 00000KT 10SM OVC070 14/14 A3008 RMK AO2 T01360136
KAXH 231055Z AUTO 00000KT 10SM OVC070 14/14 A3008 RMK AO2 T01370137
KAXH 231035Z AUTO 00000KT 7SM OVC070 14/14 A3008 RMK AO2 T01350135
KAXH 231015Z AUTO 00000KT 7SM OVC070 14/14 A3008 RMK AO2 T01350135